Lothian, Maryland
Current Conditions -  °F | °C
As of 9:54 PM on Monday 26 Jan 2015 (Local Time) from KNAK Reporting Station
Light Snow Light Snow  
Wind Chill: 21°   Ceiling: 2000
Heat Index: 30°   Visibility: 4mi
Dew Point: 25°   Wind: 10mph
Humidity: 82%   Direction: 340°NNW
Pressure: 29.73"   Gusts: NA
Location:  38.83°N, 76.61°W
Report Text: KNAK 270254Z AUTO 34009KT 4SM -SN OVC020 M01/M04 A2973 RMK AO2 SNE01B22 SLP068 P0000 60001 I3000 T10111039 50002
Loading
Personal Weather Stations






























Interactive Weather Map New forecast layout! Learn more

10-Day Weather Forecast

Advertisements
Track Severe Weather on mobile